sensor_id;sensor_type;location;lat;lon;timestamp;P1;durP1;ratioP1;P2;durP2;ratioP2
60241;SDS011;46103;52.076;113.488;2024-03-23T00:56:30;1.45;;;0.40;;
60241;SDS011;46103;52.076;113.488;2024-03-23T00:59:33;1.90;;;0.70;;
60241;SDS011;46103;52.076;113.488;2024-03-23T01:02:35;1.10;;;0.30;;
60241;SDS011;46103;52.076;113.488;2024-03-23T01:05:38;1.05;;;0.28;;
60241;SDS011;46103;52.076;113.488;2024-03-23T01:08:40;0.73;;;0.30;;
60241;SDS011;46103;52.076;113.488;2024-03-23T01:11:43;1.35;;;0.30;;
60241;SDS011;46103;52.076;113.488;2024-03-23T01:14:45;2.20;;;0.50;;
60241;SDS011;46103;52.076;113.488;2024-03-23T01:17:47;0.75;;;0.20;;
60241;SDS011;46103;52.076;113.488;2024-03-23T01:20:50;0.77;;;0.30;;
60241;SDS011;46103;52.076;113.488;2024-03-23T01:23:53;5.88;;;0.85;;
60241;SDS011;46103;52.076;113.488;2024-03-23T01:26:55;1.25;;;0.30;;
60241;SDS011;46103;52.076;113.488;2024-03-23T01:29:57;2.22;;;0.43;;
60241;SDS011;46103;52.076;113.488;2024-03-23T01:33:00;2.03;;;0.50;;
60241;SDS011;46103;52.076;113.488;2024-03-23T01:36:03;1.63;;;0.75;;
60241;SDS011;46103;52.076;113.488;2024-03-23T01:39:06;2.42;;;1.05;;
60241;SDS011;46103;52.076;113.488;2024-03-23T01:42:10;1.63;;;0.40;;
60241;SDS011;46103;52.076;113.488;2024-03-23T01:45:13;0.47;;;0.15;;
60241;SDS011;46103;52.076;113.488;2024-03-23T01:48:15;1.67;;;0.43;;
60241;SDS011;46103;52.076;113.488;2024-03-23T01:51:17;0.80;;;0.25;;
60241;SDS011;46103;52.076;113.488;2024-03-23T01:54:20;0.80;;;0.20;;
60241;SDS011;46103;52.076;113.488;2024-03-23T01:57:25;1.92;;;0.45;;
60241;SDS011;46103;52.076;113.488;2024-03-23T02:00:27;2.28;;;0.40;;
60241;SDS011;46103;52.076;113.488;2024-03-23T02:03:30;1.70;;;0.50;;
60241;SDS011;46103;52.076;113.488;2024-03-23T02:06:33;2.20;;;0.35;;
60241;SDS011;46103;52.076;113.488;2024-03-23T02:09:35;1.15;;;0.40;;
60241;SDS011;46103;52.076;113.488;2024-03-23T02:12:37;3.42;;;0.80;;
60241;SDS011;46103;52.076;113.488;2024-03-23T02:15:40;4.57;;;1.13;;
60241;SDS011;46103;52.076;113.488;2024-03-23T02:18:42;1.27;;;0.40;;
60241;SDS011;46103;52.076;113.488;2024-03-23T02:21:45;1.25;;;0.57;;
60241;SDS011;46103;52.076;113.488;2024-03-23T02:24:48;1.98;;;0.52;;
60241;SDS011;46103;52.076;113.488;2024-03-23T02:27:51;2.17;;;0.68;;
60241;SDS011;46103;52.076;113.488;2024-03-23T02:30:55;0.98;;;0.20;;
60241;SDS011;46103;52.076;113.488;2024-03-23T02:33:58;0.38;;;0.20;;
60241;SDS011;46103;52.076;113.488;2024-03-23T02:37:00;2.95;;;0.80;;
60241;SDS011;46103;52.076;113.488;2024-03-23T02:40:03;0.95;;;0.22;;
60241;SDS011;46103;52.076;113.488;2024-03-23T02:43:05;1.10;;;0.20;;
60241;SDS011;46103;52.076;113.488;2024-03-23T02:46:08;1.25;;;0.45;;
60241;SDS011;46103;52.076;113.488;2024-03-23T02:49:10;1.23;;;0.50;;
60241;SDS011;46103;52.076;113.488;2024-03-23T02:55:15;3.78;;;0.35;;
60241;SDS011;46103;52.076;113.488;2024-03-23T02:58:18;1.02;;;0.20;;
60241;SDS011;46103;52.076;113.488;2024-03-23T03:01:21;2.25;;;0.52;;
60241;SDS011;46103;52.076;113.488;2024-03-23T03:04:23;3.40;;;1.05;;
60241;SDS011;46103;52.076;113.488;2024-03-23T03:07:25;2.20;;;0.82;;
60241;SDS011;46103;52.076;113.488;2024-03-23T03:10:28;1.60;;;0.63;;
60241;SDS011;46103;52.076;113.488;2024-03-23T03:13:32;0.90;;;0.20;;
60241;SDS011;46103;52.076;113.488;2024-03-23T03:16:34;1.08;;;0.20;;
60241;SDS011;46103;52.076;113.488;2024-03-23T03:19:37;1.55;;;0.20;;
60241;SDS011;46103;52.076;113.488;2024-03-23T03:22:39;1.85;;;0.60;;
60241;SDS011;46103;52.076;113.488;2024-03-23T03:25:45;2.83;;;0.50;;
60241;SDS011;46103;52.076;113.488;2024-03-23T03:29:00;1.67;;;0.40;;
60241;SDS011;46103;52.076;113.488;2024-03-23T03:32:02;0.63;;;0.22;;
60241;SDS011;46103;52.076;113.488;2024-03-23T03:35:05;0.57;;;0.20;;
60241;SDS011;46103;52.076;113.488;2024-03-23T03:38:08;3.05;;;0.63;;
60241;SDS011;46103;52.076;113.488;2024-03-23T03:41:11;1.38;;;0.38;;
60241;SDS011;46103;52.076;113.488;2024-03-23T03:44:13;1.15;;;0.43;;
60241;SDS011;46103;52.076;113.488;2024-03-23T03:47:15;1.60;;;0.30;;
60241;SDS011;46103;52.076;113.488;2024-03-23T03:50:18;1.15;;;0.30;;
60241;SDS011;46103;52.076;113.488;2024-03-23T03:53:22;1.08;;;0.40;;
60241;SDS011;46103;52.076;113.488;2024-03-23T03:56:24;0.82;;;0.30;;
60241;SDS011;46103;52.076;113.488;2024-03-23T03:59:26;2.15;;;0.50;;
60241;SDS011;46103;52.076;113.488;2024-03-23T04:02:29;0.63;;;0.30;;
60241;SDS011;46103;52.076;113.488;2024-03-23T04:08:34;1.63;;;0.60;;
60241;SDS011;46103;52.076;113.488;2024-03-23T04:11:39;0.80;;;0.45;;
60241;SDS011;46103;52.076;113.488;2024-03-23T04:14:41;1.88;;;0.60;;
60241;SDS011;46103;52.076;113.488;2024-03-23T04:20:45;0.85;;;0.28;;
60241;SDS011;46103;52.076;113.488;2024-03-23T04:23:48;1.60;;;0.65;;
60241;SDS011;46103;52.076;113.488;2024-03-23T04:26:50;0.63;;;0.22;;
60241;SDS011;46103;52.076;113.488;2024-03-23T04:29:53;4.88;;;0.98;;
60241;SDS011;46103;52.076;113.488;2024-03-23T04:32:55;2.13;;;0.50;;
60241;SDS011;46103;52.076;113.488;2024-03-23T04:36:01;1.83;;;0.57;;
60241;SDS011;46103;52.076;113.488;2024-03-23T04:42:06;2.72;;;0.40;;
60241;SDS011;46103;52.076;113.488;2024-03-23T04:45:08;2.90;;;0.50;;
60241;SDS011;46103;52.076;113.488;2024-03-23T04:48:12;0.63;;;0.57;;
60241;SDS011;46103;52.076;113.488;2024-03-23T04:51:22;2.00;;;0.50;;
60241;SDS011;46103;52.076;113.488;2024-03-23T04:54:24;4.03;;;0.57;;
60241;SDS011;46103;52.076;113.488;2024-03-23T04:57:27;2.58;;;0.68;;
60241;SDS011;46103;52.076;113.488;2024-03-23T05:00:29;0.30;;;0.10;;
60241;SDS011;46103;52.076;113.488;2024-03-23T05:03:32;3.85;;;0.98;;
60241;SDS011;46103;52.076;113.488;2024-03-23T05:06:34;2.00;;;0.30;;
60241;SDS011;46103;52.076;113.488;2024-03-23T05:09:36;2.35;;;0.25;;
60241;SDS011;46103;52.076;113.488;2024-03-23T05:12:39;1.05;;;0.30;;
60241;SDS011;46103;52.076;113.488;2024-03-23T05:15:42;2.58;;;0.65;;
60241;SDS011;46103;52.076;113.488;2024-03-23T05:18:44;1.60;;;0.32;;
60241;SDS011;46103;52.076;113.488;2024-03-23T05:24:50;5.55;;;1.50;;
60241;SDS011;46103;52.076;113.488;2024-03-23T05:27:52;3.38;;;0.90;;
60241;SDS011;46103;52.076;113.488;2024-03-23T05:30:55;3.30;;;0.52;;
60241;SDS011;46103;52.076;113.488;2024-03-23T05:33:58;0.77;;;0.30;;
60241;SDS011;46103;52.076;113.488;2024-03-23T05:37:00;1.23;;;0.30;;
60241;SDS011;46103;52.076;113.488;2024-03-23T05:40:03;3.15;;;0.70;;
60241;SDS011;46103;52.076;113.488;2024-03-23T05:43:06;3.58;;;0.65;;
60241;SDS011;46103;52.076;113.488;2024-03-23T05:46:08;0.88;;;0.15;;
60241;SDS011;46103;52.076;113.488;2024-03-23T05:52:13;3.65;;;0.50;;
60241;SDS011;46103;52.076;113.488;2024-03-23T05:55:16;3.20;;;0.65;;
60241;SDS011;46103;52.076;113.488;2024-03-23T05:58:18;0.80;;;0.30;;
60241;SDS011;46103;52.076;113.488;2024-03-23T06:01:21;1.88;;;0.30;;
60241;SDS011;46103;52.076;113.488;2024-03-23T06:04:24;3.97;;;0.65;;
60241;SDS011;46103;52.076;113.488;2024-03-23T06:10:29;1.58;;;0.68;;
60241;SDS011;46103;52.076;113.488;2024-03-23T06:13:32;1.80;;;0.40;;
60241;SDS011;46103;52.076;113.488;2024-03-23T06:16:35;1.52;;;0.43;;
60241;SDS011;46103;52.076;113.488;2024-03-23T06:19:37;1.75;;;0.50;;
60241;SDS011;46103;52.076;113.488;2024-03-23T06:22:39;1.33;;;0.50;;
60241;SDS011;46103;52.076;113.488;2024-03-23T06:25:42;3.40;;;0.82;;
60241;SDS011;46103;52.076;113.488;2024-03-23T06:28:45;1.73;;;0.63;;
60241;SDS011;46103;52.076;113.488;2024-03-23T06:31:54;2.03;;;0.55;;
60241;SDS011;46103;52.076;113.488;2024-03-23T06:34:57;2.97;;;0.52;;
60241;SDS011;46103;52.076;113.488;2024-03-23T06:37:59;0.82;;;0.20;;
60241;SDS011;46103;52.076;113.488;2024-03-23T06:41:05;5.65;;;0.45;;
60241;SDS011;46103;52.076;113.488;2024-03-23T06:44:07;2.08;;;0.40;;
60241;SDS011;46103;52.076;113.488;2024-03-23T06:47:09;3.05;;;0.80;;
60241;SDS011;46103;52.076;113.488;2024-03-23T06:50:13;4.53;;;0.73;;
60241;SDS011;46103;52.076;113.488;2024-03-23T06:53:15;1.55;;;0.30;;
60241;SDS011;46103;52.076;113.488;2024-03-23T06:56:18;2.03;;;0.50;;
60241;SDS011;46103;52.076;113.488;2024-03-23T06:59:20;3.33;;;0.70;;
60241;SDS011;46103;52.076;113.488;2024-03-23T07:02:22;1.80;;;0.50;;
60241;SDS011;46103;52.076;113.488;2024-03-23T07:05:25;2.65;;;0.70;;
60241;SDS011;46103;52.076;113.488;2024-03-23T07:08:27;1.05;;;0.50;;
60241;SDS011;46103;52.076;113.488;2024-03-23T07:11:29;1.63;;;0.63;;
60241;SDS011;46103;52.076;113.488;2024-03-23T07:14:32;2.67;;;0.80;;
60241;SDS011;46103;52.076;113.488;2024-03-23T07:17:34;1.33;;;0.35;;
60241;SDS011;46103;52.076;113.488;2024-03-23T07:20:37;1.55;;;0.47;;
60241;SDS011;46103;52.076;113.488;2024-03-23T07:23:41;5.47;;;0.90;;
60241;SDS011;46103;52.076;113.488;2024-03-23T07:26:47;2.05;;;0.60;;
60241;SDS011;46103;52.076;113.488;2024-03-23T07:29:50;2.40;;;0.63;;
60241;SDS011;46103;52.076;113.488;2024-03-23T07:32:53;3.58;;;0.50;;
60241;SDS011;46103;52.076;113.488;2024-03-23T07:35:55;3.25;;;0.70;;
60241;SDS011;46103;52.076;113.488;2024-03-23T07:38:58;5.80;;;1.30;;
60241;SDS011;46103;52.076;113.488;2024-03-23T07:42:00;1.60;;;0.40;;
60241;SDS011;46103;52.076;113.488;2024-03-23T07:45:03;2.35;;;0.73;;
60241;SDS011;46103;52.076;113.488;2024-03-23T07:48:05;1.75;;;0.32;;
60241;SDS011;46103;52.076;113.488;2024-03-23T07:51:09;2.67;;;0.60;;
60241;SDS011;46103;52.076;113.488;2024-03-23T07:54:12;1.67;;;0.30;;
60241;SDS011;46103;52.076;113.488;2024-03-23T08:00:17;2.38;;;0.70;;
60241;SDS011;46103;52.076;113.488;2024-03-23T08:03:20;2.80;;;0.82;;
60241;SDS011;46103;52.076;113.488;2024-03-23T08:06:22;3.42;;;0.70;;
60241;SDS011;46103;52.076;113.488;2024-03-23T08:09:25;4.03;;;1.10;;
60241;SDS011;46103;52.076;113.488;2024-03-23T08:12:28;2.92;;;1.33;;
60241;SDS011;46103;52.076;113.488;2024-03-23T08:15:31;5.72;;;1.23;;
60241;SDS011;46103;52.076;113.488;2024-03-23T08:18:36;6.00;;;1.60;;
60241;SDS011;46103;52.076;113.488;2024-03-23T08:21:38;5.68;;;1.88;;
60241;SDS011;46103;52.076;113.488;2024-03-23T08:24:40;7.50;;;3.00;;
60241;SDS011;46103;52.076;113.488;2024-03-23T08:27:46;6.63;;;1.73;;
60241;SDS011;46103;52.076;113.488;2024-03-23T08:30:48;5.53;;;2.10;;
60241;SDS011;46103;52.076;113.488;2024-03-23T08:33:53;9.82;;;2.92;;
60241;SDS011;46103;52.076;113.488;2024-03-23T08:39:58;3.53;;;0.82;;
60241;SDS011;46103;52.076;113.488;2024-03-23T08:43:01;2.15;;;0.55;;
60241;SDS011;46103;52.076;113.488;2024-03-23T08:49:13;1.98;;;0.95;;
60241;SDS011;46103;52.076;113.488;2024-03-23T08:52:15;1.60;;;0.50;;
60241;SDS011;46103;52.076;113.488;2024-03-23T08:55:18;1.70;;;0.88;;
60241;SDS011;46103;52.076;113.488;2024-03-23T08:58:20;1.98;;;0.60;;
60241;SDS011;46103;52.076;113.488;2024-03-23T09:01:23;5.95;;;2.58;;
60241;SDS011;46103;52.076;113.488;2024-03-23T09:04:25;3.28;;;1.00;;
60241;SDS011;46103;52.076;113.488;2024-03-23T09:07:27;4.03;;;1.42;;
60241;SDS011;46103;52.076;113.488;2024-03-23T09:10:31;3.72;;;1.20;;
60241;SDS011;46103;52.076;113.488;2024-03-23T09:13:33;4.78;;;1.98;;
60241;SDS011;46103;52.076;113.488;2024-03-23T09:16:39;2.90;;;0.70;;
60241;SDS011;46103;52.076;113.488;2024-03-23T09:19:41;3.22;;;1.10;;
60241;SDS011;46103;52.076;113.488;2024-03-23T09:22:44;2.60;;;0.70;;
60241;SDS011;46103;52.076;113.488;2024-03-23T09:25:46;4.70;;;1.45;;
60241;SDS011;46103;52.076;113.488;2024-03-23T09:28:49;4.47;;;0.70;;
60241;SDS011;46103;52.076;113.488;2024-03-23T09:31:51;2.90;;;1.17;;
60241;SDS011;46103;52.076;113.488;2024-03-23T09:34:54;1.73;;;0.57;;
60241;SDS011;46103;52.076;113.488;2024-03-23T09:37:56;2.17;;;0.77;;
60241;SDS011;46103;52.076;113.488;2024-03-23T09:41:00;0.98;;;0.60;;
60241;SDS011;46103;52.076;113.488;2024-03-23T09:44:02;2.85;;;1.00;;
60241;SDS011;46103;52.076;113.488;2024-03-23T09:47:05;2.03;;;0.63;;
60241;SDS011;46103;52.076;113.488;2024-03-23T09:50:09;3.13;;;0.90;;
60241;SDS011;46103;52.076;113.488;2024-03-23T09:53:13;3.15;;;1.10;;
60241;SDS011;46103;52.076;113.488;2024-03-23T09:56:15;4.13;;;1.30;;
60241;SDS011;46103;52.076;113.488;2024-03-23T09:59:19;4.15;;;1.55;;
60241;SDS011;46103;52.076;113.488;2024-03-23T10:02:21;4.45;;;1.67;;
60241;SDS011;46103;52.076;113.488;2024-03-23T10:05:24;4.93;;;1.80;;
60241;SDS011;46103;52.076;113.488;2024-03-23T10:08:29;4.35;;;1.30;;
60241;SDS011;46103;52.076;113.488;2024-03-23T10:11:33;4.78;;;1.90;;
60241;SDS011;46103;52.076;113.488;2024-03-23T10:14:35;4.65;;;1.90;;
60241;SDS011;46103;52.076;113.488;2024-03-23T10:17:40;9.68;;;2.70;;
60241;SDS011;46103;52.076;113.488;2024-03-23T10:20:42;10.30;;;2.78;;
60241;SDS011;46103;52.076;113.488;2024-03-23T10:23:45;4.95;;;1.40;;
60241;SDS011;46103;52.076;113.488;2024-03-23T10:26:55;3.35;;;1.27;;
60241;SDS011;46103;52.076;113.488;2024-03-23T10:29:59;6.13;;;1.60;;
60241;SDS011;46103;52.076;113.488;2024-03-23T10:36:16;4.70;;;1.10;;
60241;SDS011;46103;52.076;113.488;2024-03-23T10:39:22;6.88;;;2.30;;
60241;SDS011;46103;52.076;113.488;2024-03-23T10:42:24;7.72;;;3.15;;
60241;SDS011;46103;52.076;113.488;2024-03-23T10:45:28;9.80;;;2.75;;
60241;SDS011;46103;52.076;113.488;2024-03-23T10:48:30;5.15;;;2.10;;
60241;SDS011;46103;52.076;113.488;2024-03-23T10:51:34;5.75;;;2.53;;
60241;SDS011;46103;52.076;113.488;2024-03-23T10:54:36;7.35;;;2.72;;
60241;SDS011;46103;52.076;113.488;2024-03-23T10:57:41;7.90;;;2.75;;
60241;SDS011;46103;52.076;113.488;2024-03-23T11:00:51;7.78;;;2.95;;
60241;SDS011;46103;52.076;113.488;2024-03-23T11:03:55;5.15;;;1.92;;
60241;SDS011;46103;52.076;113.488;2024-03-23T11:06:57;6.15;;;2.75;;
60241;SDS011;46103;52.076;113.488;2024-03-23T11:10:01;8.02;;;3.28;;
60241;SDS011;46103;52.076;113.488;2024-03-23T11:16:39;16.05;;;6.70;;
60241;SDS011;46103;52.076;113.488;2024-03-23T11:19:41;14.00;;;5.60;;
60241;SDS011;46103;52.076;113.488;2024-03-23T11:22:44;18.35;;;8.73;;
60241;SDS011;46103;52.076;113.488;2024-03-23T11:25:50;10.38;;;4.70;;
60241;SDS011;46103;52.076;113.488;2024-03-23T11:29:08;26.88;;;10.50;;
60241;SDS011;46103;52.076;113.488;2024-03-23T11:32:11;26.75;;;11.75;;
60241;SDS011;46103;52.076;113.488;2024-03-23T11:38:36;24.00;;;9.45;;
60241;SDS011;46103;52.076;113.488;2024-03-23T11:41:46;15.30;;;7.43;;
60241;SDS011;46103;52.076;113.488;2024-03-23T11:44:49;21.67;;;9.23;;
60241;SDS011;46103;52.076;113.488;2024-03-23T11:48:05;17.10;;;8.75;;
60241;SDS011;46103;52.076;113.488;2024-03-23T11:51:07;19.58;;;8.80;;
60241;SDS011;46103;52.076;113.488;2024-03-23T11:54:10;15.82;;;7.53;;
60241;SDS011;46103;52.076;113.488;2024-03-23T11:57:20;22.65;;;8.98;;
60241;SDS011;46103;52.076;113.488;2024-03-23T12:00:22;20.65;;;8.93;;
60241;SDS011;46103;52.076;113.488;2024-03-23T12:06:28;17.90;;;7.70;;
60241;SDS011;46103;52.076;113.488;2024-03-23T12:09:31;22.48;;;9.52;;
60241;SDS011;46103;52.076;113.488;2024-03-23T12:15:36;15.35;;;7.28;;
60241;SDS011;46103;52.076;113.488;2024-03-23T12:18:39;16.80;;;9.40;;
60241;SDS011;46103;52.076;113.488;2024-03-23T12:21:45;18.23;;;7.55;;
60241;SDS011;46103;52.076;113.488;2024-03-23T12:24:48;18.90;;;9.75;;
60241;SDS011;46103;52.076;113.488;2024-03-23T12:27:51;41.95;;;17.05;;
60241;SDS011;46103;52.076;113.488;2024-03-23T12:30:53;49.45;;;22.77;;
60241;SDS011;46103;52.076;113.488;2024-03-23T12:33:56;69.90;;;30.02;;
60241;SDS011;46103;52.076;113.488;2024-03-23T12:36:59;73.70;;;30.10;;
60241;SDS011;46103;52.076;113.488;2024-03-23T12:40:01;66.85;;;30.30;;
60241;SDS011;46103;52.076;113.488;2024-03-23T12:43:04;49.42;;;19.05;;
60241;SDS011;46103;52.076;113.488;2024-03-23T12:46:06;54.40;;;23.55;;
60241;SDS011;46103;52.076;113.488;2024-03-23T12:49:13;44.65;;;20.15;;
60241;SDS011;46103;52.076;113.488;2024-03-23T12:52:16;50.28;;;22.05;;
60241;SDS011;46103;52.076;113.488;2024-03-23T12:55:18;24.02;;;9.32;;
60241;SDS011;46103;52.076;113.488;2024-03-23T13:01:26;40.15;;;19.08;;
60241;SDS011;46103;52.076;113.488;2024-03-23T13:04:28;53.60;;;21.20;;
60241;SDS011;46103;52.076;113.488;2024-03-23T13:07:30;43.25;;;20.63;;
60241;SDS011;46103;52.076;113.488;2024-03-23T13:10:33;55.90;;;24.30;;
60241;SDS011;46103;52.076;113.488;2024-03-23T13:13:36;41.85;;;19.38;;
60241;SDS011;46103;52.076;113.488;2024-03-23T13:16:38;33.97;;;14.98;;
60241;SDS011;46103;52.076;113.488;2024-03-23T13:19:41;23.30;;;11.18;;
60241;SDS011;46103;52.076;113.488;2024-03-23T13:22:43;25.48;;;11.20;;
60241;SDS011;46103;52.076;113.488;2024-03-23T13:25:50;35.20;;;11.70;;
60241;SDS011;46103;52.076;113.488;2024-03-23T13:28:54;51.45;;;18.55;;
60241;SDS011;46103;52.076;113.488;2024-03-23T13:31:56;28.77;;;9.93;;
60241;SDS011;46103;52.076;113.488;2024-03-23T13:34:58;28.08;;;12.13;;
60241;SDS011;46103;52.076;113.488;2024-03-23T13:38:01;24.85;;;10.48;;
60241;SDS011;46103;52.076;113.488;2024-03-23T13:41:03;19.83;;;9.73;;
60241;SDS011;46103;52.076;113.488;2024-03-23T13:44:09;26.45;;;11.30;;
60241;SDS011;46103;52.076;113.488;2024-03-23T13:47:12;29.08;;;10.93;;
60241;SDS011;46103;52.076;113.488;2024-03-23T13:50:14;28.38;;;9.75;;
60241;SDS011;46103;52.076;113.488;2024-03-23T13:53:17;17.92;;;7.50;;
60241;SDS011;46103;52.076;113.488;2024-03-23T13:56:20;12.23;;;6.07;;
60241;SDS011;46103;52.076;113.488;2024-03-23T13:59:23;16.15;;;7.05;;
60241;SDS011;46103;52.076;113.488;2024-03-23T14:02:26;13.73;;;4.20;;
60241;SDS011;46103;52.076;113.488;2024-03-23T14:05:28;8.10;;;2.85;;
60241;SDS011;46103;52.076;113.488;2024-03-23T14:08:31;8.48;;;2.33;;
60241;SDS011;46103;52.076;113.488;2024-03-23T14:11:35;7.95;;;2.95;;
60241;SDS011;46103;52.076;113.488;2024-03-23T14:14:42;5.65;;;2.13;;
60241;SDS011;46103;52.076;113.488;2024-03-23T14:17:44;10.82;;;4.43;;
60241;SDS011;46103;52.076;113.488;2024-03-23T14:20:47;10.85;;;3.88;;
60241;SDS011;46103;52.076;113.488;2024-03-23T14:23:50;18.70;;;7.75;;
60241;SDS011;46103;52.076;113.488;2024-03-23T14:26:52;26.67;;;11.88;;
60241;SDS011;46103;52.076;113.488;2024-03-23T14:29:54;22.42;;;10.23;;
60241;SDS011;46103;52.076;113.488;2024-03-23T14:32:58;11.45;;;5.22;;
60241;SDS011;46103;52.076;113.488;2024-03-23T14:36:00;7.68;;;3.97;;
60241;SDS011;46103;52.076;113.488;2024-03-23T14:39:03;8.63;;;3.72;;
60241;SDS011;46103;52.076;113.488;2024-03-23T14:42:05;6.00;;;3.15;;
60241;SDS011;46103;52.076;113.488;2024-03-23T14:45:10;10.48;;;5.70;;
60241;SDS011;46103;52.076;113.488;2024-03-23T14:48:12;13.82;;;5.93;;
60241;SDS011;46103;52.076;113.488;2024-03-23T14:51:15;11.13;;;4.25;;
60241;SDS011;46103;52.076;113.488;2024-03-23T14:54:17;8.63;;;3.92;;
60241;SDS011;46103;52.076;113.488;2024-03-23T14:57:20;15.68;;;6.05;;
60241;SDS011;46103;52.076;113.488;2024-03-23T15:00:22;12.77;;;5.88;;
60241;SDS011;46103;52.076;113.488;2024-03-23T15:03:25;13.95;;;6.25;;
60241;SDS011;46103;52.076;113.488;2024-03-23T15:06:27;14.80;;;5.93;;
60241;SDS011;46103;52.076;113.488;2024-03-23T15:09:30;13.52;;;5.28;;
60241;SDS011;46103;52.076;113.488;2024-03-23T15:12:33;11.77;;;4.70;;
60241;SDS011;46103;52.076;113.488;2024-03-23T15:15:39;10.18;;;5.25;;
60241;SDS011;46103;52.076;113.488;2024-03-23T15:18:46;12.68;;;6.38;;
60241;SDS011;46103;52.076;113.488;2024-03-23T15:21:50;14.00;;;5.88;;
60241;SDS011;46103;52.076;113.488;2024-03-23T15:24:52;10.25;;;5.10;;
60241;SDS011;46103;52.076;113.488;2024-03-23T15:27:54;15.80;;;5.93;;
60241;SDS011;46103;52.076;113.488;2024-03-23T15:30:58;15.90;;;6.90;;
60241;SDS011;46103;52.076;113.488;2024-03-23T15:34:00;15.35;;;6.43;;
60241;SDS011;46103;52.076;113.488;2024-03-23T15:37:02;14.70;;;6.40;;
60241;SDS011;46103;52.076;113.488;2024-03-23T15:40:06;16.83;;;6.80;;
60241;SDS011;46103;52.076;113.488;2024-03-23T15:43:09;19.95;;;9.50;;
60241;SDS011;46103;52.076;113.488;2024-03-23T15:46:11;31.88;;;12.23;;
60241;SDS011;46103;52.076;113.488;2024-03-23T15:49:16;38.42;;;14.50;;
60241;SDS011;46103;52.076;113.488;2024-03-23T15:52:18;42.15;;;17.35;;
60241;SDS011;46103;52.076;113.488;2024-03-23T15:55:21;57.85;;;24.25;;
60241;SDS011;46103;52.076;113.488;2024-03-23T15:58:23;87.22;;;36.75;;
60241;SDS011;46103;52.076;113.488;2024-03-23T16:01:26;52.83;;;23.20;;
60241;SDS011;46103;52.076;113.488;2024-03-23T16:04:28;27.48;;;11.80;;
60241;SDS011;46103;52.076;113.488;2024-03-23T16:10:33;50.58;;;19.80;;
60241;SDS011;46103;52.076;113.488;2024-03-23T16:13:36;43.00;;;18.58;;
60241;SDS011;46103;52.076;113.488;2024-03-23T16:16:38;40.50;;;17.50;;
60241;SDS011;46103;52.076;113.488;2024-03-23T16:19:40;43.88;;;18.17;;
60241;SDS011;46103;52.076;113.488;2024-03-23T16:22:42;37.45;;;15.75;;
60241;SDS011;46103;52.076;113.488;2024-03-23T16:25:48;40.42;;;15.70;;
60241;SDS011;46103;52.076;113.488;2024-03-23T16:28:57;31.13;;;12.57;;
60241;SDS011;46103;52.076;113.488;2024-03-23T16:32:00;28.40;;;13.27;;
60241;SDS011;46103;52.076;113.488;2024-03-23T16:35:03;30.17;;;11.57;;
60241;SDS011;46103;52.076;113.488;2024-03-23T16:38:06;27.35;;;11.98;;
60241;SDS011;46103;52.076;113.488;2024-03-23T16:41:09;25.15;;;11.02;;
60241;SDS011;46103;52.076;113.488;2024-03-23T16:44:19;22.90;;;10.88;;
60241;SDS011;46103;52.076;113.488;2024-03-23T16:47:23;26.42;;;10.65;;
60241;SDS011;46103;52.076;113.488;2024-03-23T16:50:25;25.75;;;12.57;;
60241;SDS011;46103;52.076;113.488;2024-03-23T16:53:27;25.67;;;11.75;;
60241;SDS011;46103;52.076;113.488;2024-03-23T16:56:32;25.88;;;10.52;;
60241;SDS011;46103;52.076;113.488;2024-03-23T16:59:34;20.50;;;10.43;;
60241;SDS011;46103;52.076;113.488;2024-03-23T17:02:36;19.98;;;9.05;;
60241;SDS011;46103;52.076;113.488;2024-03-23T17:05:40;29.75;;;13.18;;
60241;SDS011;46103;52.076;113.488;2024-03-23T17:08:45;17.13;;;9.48;;
60241;SDS011;46103;52.076;113.488;2024-03-23T17:11:50;15.30;;;6.60;;
60241;SDS011;46103;52.076;113.488;2024-03-23T17:17:56;16.73;;;7.05;;
60241;SDS011;46103;52.076;113.488;2024-03-23T17:20:59;23.45;;;10.20;;
60241;SDS011;46103;52.076;113.488;2024-03-23T17:24:01;16.05;;;8.30;;
60241;SDS011;46103;52.076;113.488;2024-03-23T17:27:03;18.17;;;7.88;;
60241;SDS011;46103;52.076;113.488;2024-03-23T17:30:05;21.35;;;7.95;;
60241;SDS011;46103;52.076;113.488;2024-03-23T17:33:08;17.77;;;8.55;;
60241;SDS011;46103;52.076;113.488;2024-03-23T17:36:10;13.35;;;6.72;;
60241;SDS011;46103;52.076;113.488;2024-03-23T17:39:13;17.58;;;7.13;;
60241;SDS011;46103;52.076;113.488;2024-03-23T17:42:15;20.73;;;7.25;;
60241;SDS011;46103;52.076;113.488;2024-03-23T17:45:17;14.85;;;7.25;;
60241;SDS011;46103;52.076;113.488;2024-03-23T17:48:21;16.85;;;7.20;;
60241;SDS011;46103;52.076;113.488;2024-03-23T17:51:23;12.70;;;6.32;;
60241;SDS011;46103;52.076;113.488;2024-03-23T17:54:25;14.57;;;6.32;;
60241;SDS011;46103;52.076;113.488;2024-03-23T17:57:28;12.48;;;6.50;;
60241;SDS011;46103;52.076;113.488;2024-03-23T18:00:31;16.23;;;6.53;;
60241;SDS011;46103;52.076;113.488;2024-03-23T18:03:33;14.00;;;5.60;;
60241;SDS011;46103;52.076;113.488;2024-03-23T18:06:36;13.68;;;5.63;;
60241;SDS011;46103;52.076;113.488;2024-03-23T18:09:37;16.63;;;6.35;;
60241;SDS011;46103;52.076;113.488;2024-03-23T18:12:39;18.50;;;7.70;;
60241;SDS011;46103;52.076;113.488;2024-03-23T18:15:41;23.88;;;10.60;;
60241;SDS011;46103;52.076;113.488;2024-03-23T18:18:44;24.75;;;9.98;;
60241;SDS011;46103;52.076;113.488;2024-03-23T18:21:51;30.77;;;12.75;;
60241;SDS011;46103;52.076;113.488;2024-03-23T18:24:53;21.88;;;9.75;;
60241;SDS011;46103;52.076;113.488;2024-03-23T18:27:55;27.80;;;11.93;;
60241;SDS011;46103;52.076;113.488;2024-03-23T18:30:58;32.70;;;13.85;;
60241;SDS011;46103;52.076;113.488;2024-03-23T18:37:03;23.95;;;9.88;;
60241;SDS011;46103;52.076;113.488;2024-03-23T18:40:06;26.38;;;10.63;;
60241;SDS011;46103;52.076;113.488;2024-03-23T18:43:09;26.60;;;10.40;;
60241;SDS011;46103;52.076;113.488;2024-03-23T18:46:11;26.73;;;10.35;;
60241;SDS011;46103;52.076;113.488;2024-03-23T18:49:13;21.80;;;9.32;;
60241;SDS011;46103;52.076;113.488;2024-03-23T18:52:16;18.98;;;8.00;;
60241;SDS011;46103;52.076;113.488;2024-03-23T18:55:18;16.85;;;7.95;;
60241;SDS011;46103;52.076;113.488;2024-03-23T18:58:21;17.75;;;9.00;;
60241;SDS011;46103;52.076;113.488;2024-03-23T19:01:23;19.63;;;8.45;;
60241;SDS011;46103;52.076;113.488;2024-03-23T19:04:26;25.52;;;10.32;;
60241;SDS011;46103;52.076;113.488;2024-03-23T19:07:28;23.13;;;10.70;;
60241;SDS011;46103;52.076;113.488;2024-03-23T19:10:31;23.05;;;9.25;;
60241;SDS011;46103;52.076;113.488;2024-03-23T19:13:34;25.17;;;9.98;;
60241;SDS011;46103;52.076;113.488;2024-03-23T19:16:36;26.45;;;9.75;;
60241;SDS011;46103;52.076;113.488;2024-03-23T19:19:39;17.45;;;9.60;;
60241;SDS011;46103;52.076;113.488;2024-03-23T19:22:41;22.27;;;9.23;;
60241;SDS011;46103;52.076;113.488;2024-03-23T19:25:44;28.08;;;10.88;;
60241;SDS011;46103;52.076;113.488;2024-03-23T19:28:54;24.13;;;11.25;;
60241;SDS011;46103;52.076;113.488;2024-03-23T19:31:56;29.33;;;11.27;;
60241;SDS011;46103;52.076;113.488;2024-03-23T19:34:59;36.35;;;15.63;;